sensor_id;sensor_type;location;lat;lon;timestamp;P1;durP1;ratioP1;P2;durP2;ratioP2
3297;SDS011;1661;53.572;10.174;2024-02-21T00:00:34;45.10;;;26.80;;
3297;SDS011;1661;53.572;10.174;2024-02-21T00:03:03;58.60;;;26.93;;
3297;SDS011;1661;53.572;10.174;2024-02-21T00:05:30;56.30;;;25.87;;
3297;SDS011;1661;53.572;10.174;2024-02-21T00:07:58;47.50;;;26.43;;
3297;SDS011;1661;53.572;10.174;2024-02-21T00:10:25;63.93;;;27.83;;
3297;SDS011;1661;53.572;10.174;2024-02-21T00:12:53;62.57;;;27.50;;
3297;SDS011;1661;53.572;10.174;2024-02-21T00:15:20;55.87;;;26.20;;
3297;SDS011;1661;53.572;10.174;2024-02-21T00:17:47;47.33;;;25.90;;
3297;SDS011;1661;53.572;10.174;2024-02-21T00:20:14;48.73;;;27.57;;
3297;SDS011;1661;53.572;10.174;2024-02-21T00:22:41;59.10;;;27.97;;
3297;SDS011;1661;53.572;10.174;2024-02-21T00:25:08;48.10;;;27.73;;
3297;SDS011;1661;53.572;10.174;2024-02-21T00:27:35;54.33;;;29.07;;
3297;SDS011;1661;53.572;10.174;2024-02-21T00:30:03;44.93;;;27.27;;
3297;SDS011;1661;53.572;10.174;2024-02-21T00:32:31;52.37;;;26.93;;
3297;SDS011;1661;53.572;10.174;2024-02-21T00:34:59;66.97;;;27.37;;
3297;SDS011;1661;53.572;10.174;2024-02-21T00:37:26;47.43;;;27.57;;
3297;SDS011;1661;53.572;10.174;2024-02-21T00:39:53;68.40;;;28.03;;
3297;SDS011;1661;53.572;10.174;2024-02-21T00:42:20;58.10;;;28.20;;
3297;SDS011;1661;53.572;10.174;2024-02-21T00:44:47;53.97;;;30.30;;
3297;SDS011;1661;53.572;10.174;2024-02-21T00:47:15;53.40;;;27.07;;
3297;SDS011;1661;53.572;10.174;2024-02-21T00:49:42;51.23;;;29.13;;
3297;SDS011;1661;53.572;10.174;2024-02-21T00:52:08;58.83;;;29.60;;
3297;SDS011;1661;53.572;10.174;2024-02-21T00:54:35;55.00;;;29.30;;
3297;SDS011;1661;53.572;10.174;2024-02-21T00:57:02;64.23;;;30.63;;
3297;SDS011;1661;53.572;10.174;2024-02-21T00:59:29;50.40;;;29.43;;
3297;SDS011;1661;53.572;10.174;2024-02-21T01:01:57;57.73;;;30.30;;
3297;SDS011;1661;53.572;10.174;2024-02-21T01:04:25;66.90;;;32.00;;
3297;SDS011;1661;53.572;10.174;2024-02-21T01:06:52;62.70;;;31.50;;
3297;SDS011;1661;53.572;10.174;2024-02-21T01:09:19;56.83;;;31.37;;
3297;SDS011;1661;53.572;10.174;2024-02-21T01:11:46;50.50;;;29.83;;
3297;SDS011;1661;53.572;10.174;2024-02-21T01:14:12;49.97;;;30.53;;
3297;SDS011;1661;53.572;10.174;2024-02-21T01:16:39;70.97;;;32.33;;
3297;SDS011;1661;53.572;10.174;2024-02-21T01:19:06;70.57;;;33.00;;
3297;SDS011;1661;53.572;10.174;2024-02-21T01:21:34;64.70;;;32.17;;
3297;SDS011;1661;53.572;10.174;2024-02-21T01:24:01;77.57;;;32.07;;
3297;SDS011;1661;53.572;10.174;2024-02-21T01:26:28;50.80;;;30.07;;
3297;SDS011;1661;53.572;10.174;2024-02-21T01:28:55;72.57;;;32.70;;
3297;SDS011;1661;53.572;10.174;2024-02-21T01:31:21;55.50;;;31.53;;
3297;SDS011;1661;53.572;10.174;2024-02-21T01:33:48;52.50;;;30.13;;
3297;SDS011;1661;53.572;10.174;2024-02-21T01:36:15;53.03;;;30.83;;
3297;SDS011;1661;53.572;10.174;2024-02-21T01:38:43;82.37;;;32.57;;
3297;SDS011;1661;53.572;10.174;2024-02-21T01:41:10;63.33;;;33.13;;
3297;SDS011;1661;53.572;10.174;2024-02-21T01:43:36;61.63;;;32.67;;
3297;SDS011;1661;53.572;10.174;2024-02-21T01:46:03;58.70;;;31.20;;
3297;SDS011;1661;53.572;10.174;2024-02-21T01:48:30;77.97;;;33.70;;
3297;SDS011;1661;53.572;10.174;2024-02-21T01:50:57;53.20;;;31.77;;
3297;SDS011;1661;53.572;10.174;2024-02-21T01:53:25;60.73;;;30.63;;
3297;SDS011;1661;53.572;10.174;2024-02-21T01:55:57;68.17;;;33.43;;
3297;SDS011;1661;53.572;10.174;2024-02-21T01:58:24;50.57;;;31.77;;
3297;SDS011;1661;53.572;10.174;2024-02-21T02:00:51;70.17;;;33.47;;
3297;SDS011;1661;53.572;10.174;2024-02-21T02:03:18;50.87;;;32.60;;
3297;SDS011;1661;53.572;10.174;2024-02-21T02:05:45;55.53;;;31.60;;
3297;SDS011;1661;53.572;10.174;2024-02-21T02:08:12;62.27;;;33.07;;
3297;SDS011;1661;53.572;10.174;2024-02-21T02:10:39;55.63;;;30.40;;
3297;SDS011;1661;53.572;10.174;2024-02-21T02:13:08;58.63;;;31.43;;
3297;SDS011;1661;53.572;10.174;2024-02-21T02:15:39;51.83;;;31.70;;
3297;SDS011;1661;53.572;10.174;2024-02-21T02:18:06;50.87;;;30.90;;
3297;SDS011;1661;53.572;10.174;2024-02-21T02:20:33;70.17;;;32.40;;
3297;SDS011;1661;53.572;10.174;2024-02-21T02:23:00;53.10;;;30.47;;
3297;SDS011;1661;53.572;10.174;2024-02-21T02:25:32;55.40;;;30.90;;
3297;SDS011;1661;53.572;10.174;2024-02-21T02:27:59;54.60;;;33.03;;
3297;SDS011;1661;53.572;10.174;2024-02-21T02:30:26;68.67;;;36.47;;
3297;SDS011;1661;53.572;10.174;2024-02-21T02:32:52;71.27;;;36.97;;
3297;SDS011;1661;53.572;10.174;2024-02-21T02:35:19;62.10;;;35.80;;
3297;SDS011;1661;53.572;10.174;2024-02-21T02:37:49;73.67;;;36.93;;
3297;SDS011;1661;53.572;10.174;2024-02-21T02:40:16;51.50;;;33.30;;
3297;SDS011;1661;53.572;10.174;2024-02-21T02:42:44;64.53;;;36.97;;
3297;SDS011;1661;53.572;10.174;2024-02-21T02:45:13;55.17;;;31.27;;
3297;SDS011;1661;53.572;10.174;2024-02-21T02:47:40;64.80;;;34.13;;
3297;SDS011;1661;53.572;10.174;2024-02-21T02:50:07;67.20;;;34.00;;
3297;SDS011;1661;53.572;10.174;2024-02-21T02:52:34;58.13;;;33.10;;
3297;SDS011;1661;53.572;10.174;2024-02-21T02:55:01;63.80;;;34.13;;
3297;SDS011;1661;53.572;10.174;2024-02-21T02:57:29;59.50;;;34.40;;
3297;SDS011;1661;53.572;10.174;2024-02-21T02:59:57;70.07;;;35.67;;
3297;SDS011;1661;53.572;10.174;2024-02-21T03:02:24;61.70;;;35.60;;
3297;SDS011;1661;53.572;10.174;2024-02-21T03:04:51;62.33;;;34.03;;
3297;SDS011;1661;53.572;10.174;2024-02-21T03:07:19;65.83;;;36.43;;
3297;SDS011;1661;53.572;10.174;2024-02-21T03:09:46;55.17;;;36.03;;
3297;SDS011;1661;53.572;10.174;2024-02-21T03:12:13;52.33;;;32.23;;
3297;SDS011;1661;53.572;10.174;2024-02-21T03:14:44;58.30;;;35.13;;
3297;SDS011;1661;53.572;10.174;2024-02-21T03:17:12;66.83;;;36.50;;
3297;SDS011;1661;53.572;10.174;2024-02-21T03:19:39;73.93;;;37.47;;
3297;SDS011;1661;53.572;10.174;2024-02-21T03:22:05;80.30;;;37.00;;
3297;SDS011;1661;53.572;10.174;2024-02-21T03:24:32;66.70;;;36.70;;
3297;SDS011;1661;53.572;10.174;2024-02-21T03:26:59;81.97;;;40.07;;
3297;SDS011;1661;53.572;10.174;2024-02-21T03:29:26;64.07;;;36.00;;
3297;SDS011;1661;53.572;10.174;2024-02-21T03:31:53;63.00;;;34.83;;
3297;SDS011;1661;53.572;10.174;2024-02-21T03:34:22;70.53;;;38.30;;
3297;SDS011;1661;53.572;10.174;2024-02-21T03:36:49;63.97;;;36.43;;
3297;SDS011;1661;53.572;10.174;2024-02-21T03:39:15;67.33;;;36.33;;
3297;SDS011;1661;53.572;10.174;2024-02-21T03:41:42;71.60;;;37.00;;
3297;SDS011;1661;53.572;10.174;2024-02-21T03:44:09;67.97;;;37.57;;
3297;SDS011;1661;53.572;10.174;2024-02-21T03:46:36;71.30;;;36.73;;
3297;SDS011;1661;53.572;10.174;2024-02-21T03:49:03;70.03;;;35.47;;
3297;SDS011;1661;53.572;10.174;2024-02-21T03:51:31;69.90;;;34.00;;
3297;SDS011;1661;53.572;10.174;2024-02-21T03:53:58;63.80;;;35.30;;
3297;SDS011;1661;53.572;10.174;2024-02-21T03:56:24;74.67;;;33.93;;
3297;SDS011;1661;53.572;10.174;2024-02-21T03:58:51;60.20;;;32.57;;
3297;SDS011;1661;53.572;10.174;2024-02-21T04:01:18;74.43;;;35.83;;
3297;SDS011;1661;53.572;10.174;2024-02-21T04:03:45;83.77;;;34.47;;
3297;SDS011;1661;53.572;10.174;2024-02-21T04:06:11;55.93;;;33.47;;
3297;SDS011;1661;53.572;10.174;2024-02-21T04:08:40;60.40;;;34.27;;
3297;SDS011;1661;53.572;10.174;2024-02-21T04:11:06;69.40;;;35.07;;
3297;SDS011;1661;53.572;10.174;2024-02-21T04:13:33;64.60;;;33.90;;
3297;SDS011;1661;53.572;10.174;2024-02-21T04:16:00;69.83;;;31.80;;
3297;SDS011;1661;53.572;10.174;2024-02-21T04:18:28;69.20;;;35.33;;
3297;SDS011;1661;53.572;10.174;2024-02-21T04:20:55;66.73;;;34.67;;
3297;SDS011;1661;53.572;10.174;2024-02-21T04:23:21;77.77;;;33.13;;
3297;SDS011;1661;53.572;10.174;2024-02-21T04:25:50;73.57;;;36.97;;
3297;SDS011;1661;53.572;10.174;2024-02-21T04:28:17;61.00;;;33.57;;
3297;SDS011;1661;53.572;10.174;2024-02-21T04:30:44;47.57;;;30.80;;
3297;SDS011;1661;53.572;10.174;2024-02-21T04:33:11;54.70;;;32.57;;
3297;SDS011;1661;53.572;10.174;2024-02-21T04:35:37;55.30;;;32.37;;
3297;SDS011;1661;53.572;10.174;2024-02-21T04:38:04;58.40;;;33.60;;
3297;SDS011;1661;53.572;10.174;2024-02-21T04:40:31;68.77;;;36.43;;
3297;SDS011;1661;53.572;10.174;2024-02-21T04:42:59;55.87;;;33.53;;
3297;SDS011;1661;53.572;10.174;2024-02-21T04:45:26;60.57;;;33.37;;
3297;SDS011;1661;53.572;10.174;2024-02-21T04:47:53;63.37;;;34.10;;
3297;SDS011;1661;53.572;10.174;2024-02-21T04:50:19;66.73;;;34.40;;
3297;SDS011;1661;53.572;10.174;2024-02-21T04:52:46;57.47;;;30.97;;
3297;SDS011;1661;53.572;10.174;2024-02-21T04:55:13;62.20;;;32.70;;
3297;SDS011;1661;53.572;10.174;2024-02-21T04:57:40;68.20;;;33.17;;
3297;SDS011;1661;53.572;10.174;2024-02-21T05:00:09;58.80;;;30.90;;
3297;SDS011;1661;53.572;10.174;2024-02-21T05:02:36;67.63;;;32.70;;
3297;SDS011;1661;53.572;10.174;2024-02-21T05:05:03;50.37;;;30.33;;
3297;SDS011;1661;53.572;10.174;2024-02-21T05:07:30;45.83;;;28.83;;
3297;SDS011;1661;53.572;10.174;2024-02-21T05:09:57;51.83;;;31.17;;
3297;SDS011;1661;53.572;10.174;2024-02-21T05:12:24;52.23;;;29.77;;
3297;SDS011;1661;53.572;10.174;2024-02-21T05:14:50;52.10;;;29.10;;
3297;SDS011;1661;53.572;10.174;2024-02-21T05:17:18;53.73;;;28.10;;
3297;SDS011;1661;53.572;10.174;2024-02-21T05:19:45;43.27;;;27.37;;
3297;SDS011;1661;53.572;10.174;2024-02-21T05:22:12;48.43;;;29.33;;
3297;SDS011;1661;53.572;10.174;2024-02-21T05:24:39;44.93;;;29.50;;
3297;SDS011;1661;53.572;10.174;2024-02-21T05:27:05;43.80;;;27.03;;
3297;SDS011;1661;53.572;10.174;2024-02-21T05:29:32;46.30;;;27.40;;
3297;SDS011;1661;53.572;10.174;2024-02-21T05:31:59;46.23;;;27.90;;
3297;SDS011;1661;53.572;10.174;2024-02-21T05:34:28;50.63;;;27.23;;
3297;SDS011;1661;53.572;10.174;2024-02-21T05:36:55;37.27;;;24.80;;
3297;SDS011;1661;53.572;10.174;2024-02-21T05:39:24;39.20;;;26.50;;
3297;SDS011;1661;53.572;10.174;2024-02-21T05:41:51;36.57;;;23.80;;
3297;SDS011;1661;53.572;10.174;2024-02-21T05:44:18;41.77;;;23.57;;
3297;SDS011;1661;53.572;10.174;2024-02-21T05:46:47;42.03;;;23.70;;
3297;SDS011;1661;53.572;10.174;2024-02-21T05:49:14;44.60;;;24.30;;
3297;SDS011;1661;53.572;10.174;2024-02-21T05:51:42;43.70;;;24.03;;
3297;SDS011;1661;53.572;10.174;2024-02-21T05:54:08;38.63;;;23.00;;
3297;SDS011;1661;53.572;10.174;2024-02-21T05:56:35;35.63;;;23.43;;
3297;SDS011;1661;53.572;10.174;2024-02-21T05:59:02;35.97;;;21.97;;
3297;SDS011;1661;53.572;10.174;2024-02-21T06:01:29;32.77;;;23.27;;
3297;SDS011;1661;53.572;10.174;2024-02-21T06:03:56;38.07;;;23.37;;
3297;SDS011;1661;53.572;10.174;2024-02-21T06:06:22;37.37;;;23.90;;
3297;SDS011;1661;53.572;10.174;2024-02-21T06:08:51;34.13;;;22.43;;
3297;SDS011;1661;53.572;10.174;2024-02-21T06:11:18;41.80;;;20.50;;
3297;SDS011;1661;53.572;10.174;2024-02-21T06:13:44;29.60;;;21.90;;
3297;SDS011;1661;53.572;10.174;2024-02-21T06:16:11;28.50;;;20.13;;
3297;SDS011;1661;53.572;10.174;2024-02-21T06:18:38;30.07;;;19.13;;
3297;SDS011;1661;53.572;10.174;2024-02-21T06:21:05;26.60;;;19.57;;
3297;SDS011;1661;53.572;10.174;2024-02-21T06:23:32;36.57;;;19.10;;
3297;SDS011;1661;53.572;10.174;2024-02-21T06:26:00;32.00;;;17.67;;
3297;SDS011;1661;53.572;10.174;2024-02-21T06:28:27;27.10;;;17.23;;
3297;SDS011;1661;53.572;10.174;2024-02-21T06:30:53;19.73;;;16.17;;
3297;SDS011;1661;53.572;10.174;2024-02-21T06:33:20;15.90;;;12.10;;
3297;SDS011;1661;53.572;10.174;2024-02-21T06:35:49;17.33;;;12.40;;
3297;SDS011;1661;53.572;10.174;2024-02-21T06:38:19;20.23;;;13.83;;
3297;SDS011;1661;53.572;10.174;2024-02-21T06:40:46;19.03;;;12.23;;
3297;SDS011;1661;53.572;10.174;2024-02-21T06:43:18;19.90;;;13.93;;
3297;SDS011;1661;53.572;10.174;2024-02-21T06:45:46;17.43;;;14.13;;
3297;SDS011;1661;53.572;10.174;2024-02-21T06:48:15;25.90;;;17.27;;
3297;SDS011;1661;53.572;10.174;2024-02-21T06:50:43;22.40;;;16.07;;
3297;SDS011;1661;53.572;10.174;2024-02-21T06:53:10;16.63;;;14.13;;
3297;SDS011;1661;53.572;10.174;2024-02-21T06:55:36;18.20;;;13.37;;
3297;SDS011;1661;53.572;10.174;2024-02-21T06:58:03;19.90;;;14.57;;
3297;SDS011;1661;53.572;10.174;2024-02-21T07:00:31;18.20;;;14.10;;
3297;SDS011;1661;53.572;10.174;2024-02-21T07:02:58;12.47;;;11.17;;
3297;SDS011;1661;53.572;10.174;2024-02-21T07:05:25;16.73;;;11.30;;
3297;SDS011;1661;53.572;10.174;2024-02-21T07:07:52;13.00;;;10.10;;
3297;SDS011;1661;53.572;10.174;2024-02-21T07:10:18;14.63;;;11.30;;
3297;SDS011;1661;53.572;10.174;2024-02-21T07:12:45;14.37;;;11.60;;
3297;SDS011;1661;53.572;10.174;2024-02-21T07:15:12;13.17;;;9.70;;
3297;SDS011;1661;53.572;10.174;2024-02-21T07:17:40;13.00;;;11.13;;
3297;SDS011;1661;53.572;10.174;2024-02-21T07:20:07;13.60;;;10.00;;
3297;SDS011;1661;53.572;10.174;2024-02-21T07:22:34;14.63;;;11.40;;
3297;SDS011;1661;53.572;10.174;2024-02-21T07:25:02;14.93;;;11.10;;
3297;SDS011;1661;53.572;10.174;2024-02-21T07:27:29;15.00;;;11.27;;
3297;SDS011;1661;53.572;10.174;2024-02-21T07:29:58;16.40;;;11.50;;
3297;SDS011;1661;53.572;10.174;2024-02-21T07:32:25;14.17;;;12.00;;
3297;SDS011;1661;53.572;10.174;2024-02-21T07:34:53;18.30;;;12.70;;
3297;SDS011;1661;53.572;10.174;2024-02-21T07:37:20;18.83;;;13.40;;
3297;SDS011;1661;53.572;10.174;2024-02-21T07:39:46;18.93;;;13.17;;
3297;SDS011;1661;53.572;10.174;2024-02-21T07:42:13;17.87;;;14.23;;
3297;SDS011;1661;53.572;10.174;2024-02-21T07:44:40;16.00;;;12.73;;
3297;SDS011;1661;53.572;10.174;2024-02-21T07:47:07;15.63;;;12.47;;
3297;SDS011;1661;53.572;10.174;2024-02-21T07:49:40;20.13;;;14.90;;
3297;SDS011;1661;53.572;10.174;2024-02-21T07:52:08;21.73;;;12.07;;
3297;SDS011;1661;53.572;10.174;2024-02-21T07:54:35;16.17;;;12.20;;
3297;SDS011;1661;53.572;10.174;2024-02-21T07:57:02;18.50;;;13.63;;
3297;SDS011;1661;53.572;10.174;2024-02-21T07:59:29;15.53;;;12.13;;
3297;SDS011;1661;53.572;10.174;2024-02-21T08:01:56;19.73;;;12.70;;
3297;SDS011;1661;53.572;10.174;2024-02-21T08:04:23;21.40;;;13.80;;
3297;SDS011;1661;53.572;10.174;2024-02-21T08:06:51;17.93;;;13.77;;
3297;SDS011;1661;53.572;10.174;2024-02-21T08:09:20;19.57;;;13.43;;
3297;SDS011;1661;53.572;10.174;2024-02-21T08:11:47;14.07;;;11.57;;
3297;SDS011;1661;53.572;10.174;2024-02-21T08:14:15;16.60;;;11.47;;
3297;SDS011;1661;53.572;10.174;2024-02-21T08:16:42;13.30;;;9.73;;
3297;SDS011;1661;53.572;10.174;2024-02-21T08:19:08;14.63;;;11.73;;
3297;SDS011;1661;53.572;10.174;2024-02-21T08:21:36;13.47;;;11.13;;
3297;SDS011;1661;53.572;10.174;2024-02-21T08:24:03;14.67;;;11.33;;
3297;SDS011;1661;53.572;10.174;2024-02-21T08:26:32;14.73;;;9.87;;
3297;SDS011;1661;53.572;10.174;2024-02-21T08:28:58;11.93;;;9.70;;
3297;SDS011;1661;53.572;10.174;2024-02-21T08:31:25;11.10;;;8.03;;
3297;SDS011;1661;53.572;10.174;2024-02-21T08:33:56;13.07;;;9.00;;
3297;SDS011;1661;53.572;10.174;2024-02-21T08:36:27;19.00;;;8.40;;
3297;SDS011;1661;53.572;10.174;2024-02-21T08:38:54;15.50;;;8.17;;
3297;SDS011;1661;53.572;10.174;2024-02-21T08:41:21;15.17;;;7.20;;
3297;SDS011;1661;53.572;10.174;2024-02-21T08:43:50;19.20;;;7.37;;
3297;SDS011;1661;53.572;10.174;2024-02-21T08:46:17;13.90;;;8.20;;
3297;SDS011;1661;53.572;10.174;2024-02-21T08:48:44;26.43;;;10.23;;
3297;SDS011;1661;53.572;10.174;2024-02-21T08:51:11;24.03;;;10.57;;
3297;SDS011;1661;53.572;10.174;2024-02-21T08:53:38;28.13;;;11.90;;
3297;SDS011;1661;53.572;10.174;2024-02-21T08:56:05;28.87;;;8.50;;
3297;SDS011;1661;53.572;10.174;2024-02-21T08:58:33;22.07;;;8.07;;
3297;SDS011;1661;53.572;10.174;2024-02-21T09:01:02;18.87;;;6.37;;
3297;SDS011;1661;53.572;10.174;2024-02-21T09:03:30;16.33;;;5.00;;
3297;SDS011;1661;53.572;10.174;2024-02-21T09:05:58;14.97;;;6.30;;
3297;SDS011;1661;53.572;10.174;2024-02-21T09:08:25;21.90;;;7.00;;
3297;SDS011;1661;53.572;10.174;2024-02-21T09:10:52;20.93;;;5.73;;
3297;SDS011;1661;53.572;10.174;2024-02-21T09:13:19;19.00;;;5.50;;
3297;SDS011;1661;53.572;10.174;2024-02-21T09:15:46;15.40;;;5.60;;
3297;SDS011;1661;53.572;10.174;2024-02-21T09:18:15;39.20;;;7.13;;
3297;SDS011;1661;53.572;10.174;2024-02-21T09:20:42;16.53;;;6.70;;
3297;SDS011;1661;53.572;10.174;2024-02-21T09:23:09;26.07;;;8.60;;
3297;SDS011;1661;53.572;10.174;2024-02-21T09:25:36;17.13;;;7.17;;
3297;SDS011;1661;53.572;10.174;2024-02-21T09:28:03;17.20;;;6.37;;
3297;SDS011;1661;53.572;10.174;2024-02-21T09:30:31;25.43;;;5.80;;
3297;SDS011;1661;53.572;10.174;2024-02-21T09:32:58;17.97;;;7.00;;
3297;SDS011;1661;53.572;10.174;2024-02-21T09:35:27;15.83;;;5.60;;
3297;SDS011;1661;53.572;10.174;2024-02-21T09:37:54;14.63;;;5.90;;
3297;SDS011;1661;53.572;10.174;2024-02-21T09:40:21;18.07;;;6.40;;
3297;SDS011;1661;53.572;10.174;2024-02-21T09:42:49;18.83;;;5.90;;
3297;SDS011;1661;53.572;10.174;2024-02-21T09:45:31;9.80;;;4.93;;
3297;SDS011;1661;53.572;10.174;2024-02-21T09:48:03;18.17;;;6.00;;
3297;SDS011;1661;53.572;10.174;2024-02-21T09:50:43;16.50;;;5.57;;
3297;SDS011;1661;53.572;10.174;2024-02-21T09:53:11;14.03;;;4.83;;
3297;SDS011;1661;53.572;10.174;2024-02-21T09:55:38;18.80;;;5.90;;
3297;SDS011;1661;53.572;10.174;2024-02-21T09:58:06;11.23;;;6.27;;
3297;SDS011;1661;53.572;10.174;2024-02-21T10:00:34;16.27;;;6.20;;
3297;SDS011;1661;53.572;10.174;2024-02-21T10:03:01;10.17;;;6.10;;
3297;SDS011;1661;53.572;10.174;2024-02-21T10:05:32;8.83;;;5.30;;
3297;SDS011;1661;53.572;10.174;2024-02-21T10:08:02;10.67;;;5.60;;
3297;SDS011;1661;53.572;10.174;2024-02-21T10:10:29;11.97;;;5.53;;
3297;SDS011;1661;53.572;10.174;2024-02-21T10:12:56;8.10;;;5.53;;
3297;SDS011;1661;53.572;10.174;2024-02-21T10:15:24;6.23;;;5.10;;
3297;SDS011;1661;53.572;10.174;2024-02-21T10:17:57;13.73;;;5.30;;
3297;SDS011;1661;53.572;10.174;2024-02-21T10:20:25;12.17;;;5.33;;
3297;SDS011;1661;53.572;10.174;2024-02-21T10:23:00;9.20;;;5.50;;
3297;SDS011;1661;53.572;10.174;2024-02-21T10:25:32;15.87;;;9.57;;
3297;SDS011;1661;53.572;10.174;2024-02-21T10:28:00;14.10;;;10.10;;
3297;SDS011;1661;53.572;10.174;2024-02-21T10:30:28;12.87;;;11.50;;
3297;SDS011;1661;53.572;10.174;2024-02-21T10:32:55;20.03;;;10.97;;
3297;SDS011;1661;53.572;10.174;2024-02-21T10:35:26;13.60;;;11.80;;
3297;SDS011;1661;53.572;10.174;2024-02-21T10:37:53;19.40;;;12.37;;
3297;SDS011;1661;53.572;10.174;2024-02-21T10:40:23;17.90;;;13.07;;
3297;SDS011;1661;53.572;10.174;2024-02-21T10:42:52;24.90;;;16.30;;
3297;SDS011;1661;53.572;10.174;2024-02-21T10:45:22;26.27;;;16.00;;
3297;SDS011;1661;53.572;10.174;2024-02-21T10:47:51;31.03;;;19.97;;
3297;SDS011;1661;53.572;10.174;2024-02-21T10:50:24;26.23;;;18.70;;
3297;SDS011;1661;53.572;10.174;2024-02-21T10:52:55;26.83;;;18.60;;
3297;SDS011;1661;53.572;10.174;2024-02-21T10:55:33;30.13;;;20.20;;
3297;SDS011;1661;53.572;10.174;2024-02-21T10:58:05;31.50;;;21.77;;
3297;SDS011;1661;53.572;10.174;2024-02-21T11:00:32;29.47;;;20.03;;
3297;SDS011;1661;53.572;10.174;2024-02-21T11:03:00;35.27;;;21.50;;
3297;SDS011;1661;53.572;10.174;2024-02-21T11:05:28;41.83;;;25.37;;
3297;SDS011;1661;53.572;10.174;2024-02-21T11:07:55;41.17;;;22.60;;
3297;SDS011;1661;53.572;10.174;2024-02-21T11:10:24;46.27;;;23.50;;
3297;SDS011;1661;53.572;10.174;2024-02-21T11:12:53;38.40;;;23.20;;
3297;SDS011;1661;53.572;10.174;2024-02-21T11:15:30;43.50;;;23.43;;
3297;SDS011;1661;53.572;10.174;2024-02-21T11:17:57;43.17;;;24.47;;
3297;SDS011;1661;53.572;10.174;2024-02-21T11:20:31;31.20;;;20.80;;
3297;SDS011;1661;53.572;10.174;2024-02-21T11:22:59;36.80;;;23.97;;
3297;SDS011;1661;53.572;10.174;2024-02-21T11:25:26;36.37;;;22.10;;
3297;SDS011;1661;53.572;10.174;2024-02-21T11:28:00;46.07;;;23.47;;
3297;SDS011;1661;53.572;10.174;2024-02-21T11:30:27;36.20;;;21.20;;
3297;SDS011;1661;53.572;10.174;2024-02-21T11:33:00;37.00;;;22.30;;
3297;SDS011;1661;53.572;10.174;2024-02-21T11:35:30;31.90;;;20.27;;
3297;SDS011;1661;53.572;10.174;2024-02-21T11:38:07;36.03;;;21.50;;
3297;SDS011;1661;53.572;10.174;2024-02-21T11:40:35;34.83;;;19.07;;
3297;SDS011;1661;53.572;10.174;2024-02-21T11:43:05;33.63;;;17.30;;
3297;SDS011;1661;53.572;10.174;2024-02-21T11:45:32;35.67;;;18.93;;
3297;SDS011;1661;53.572;10.174;2024-02-21T11:47:59;27.90;;;17.23;;
3297;SDS011;1661;53.572;10.174;2024-02-21T11:50:25;24.47;;;17.60;;
3297;SDS011;1661;53.572;10.174;2024-02-21T11:52:53;31.80;;;17.13;;
3297;SDS011;1661;53.572;10.174;2024-02-21T11:55:21;35.60;;;18.87;;
3297;SDS011;1661;53.572;10.174;2024-02-21T11:57:48;32.00;;;16.27;;
3297;SDS011;1661;53.572;10.174;2024-02-21T12:00:17;21.97;;;15.90;;
3297;SDS011;1661;53.572;10.174;2024-02-21T12:02:46;27.00;;;15.57;;
3297;SDS011;1661;53.572;10.174;2024-02-21T12:05:13;32.03;;;15.20;;
3297;SDS011;1661;53.572;10.174;2024-02-21T12:07:40;22.60;;;15.27;;
3297;SDS011;1661;53.572;10.174;2024-02-21T12:10:08;22.20;;;16.10;;
3297;SDS011;1661;53.572;10.174;2024-02-21T12:12:36;24.70;;;15.33;;
3297;SDS011;1661;53.572;10.174;2024-02-21T12:15:04;23.03;;;14.67;;
3297;SDS011;1661;53.572;10.174;2024-02-21T12:17:33;26.17;;;14.83;;
3297;SDS011;1661;53.572;10.174;2024-02-21T12:20:01;43.43;;;16.87;;
3297;SDS011;1661;53.572;10.174;2024-02-21T12:22:30;28.03;;;14.70;;
3297;SDS011;1661;53.572;10.174;2024-02-21T12:24:58;18.17;;;13.50;;
3297;SDS011;1661;53.572;10.174;2024-02-21T12:27:25;32.77;;;16.00;;
3297;SDS011;1661;53.572;10.174;2024-02-21T12:29:52;30.10;;;17.30;;
3297;SDS011;1661;53.572;10.174;2024-02-21T12:32:19;25.17;;;16.03;;
3297;SDS011;1661;53.572;10.174;2024-02-21T12:34:47;25.77;;;15.97;;
3297;SDS011;1661;53.572;10.174;2024-02-21T12:37:13;22.50;;;15.20;;
3297;SDS011;1661;53.572;10.174;2024-02-21T12:39:41;25.93;;;15.53;;
3297;SDS011;1661;53.572;10.174;2024-02-21T12:42:09;27.43;;;15.27;;
3297;SDS011;1661;53.572;10.174;2024-02-21T12:44:37;21.07;;;14.37;;
3297;SDS011;1661;53.572;10.174;2024-02-21T12:47:03;21.03;;;15.23;;
3297;SDS011;1661;53.572;10.174;2024-02-21T12:49:30;24.30;;;16.43;;
3297;SDS011;1661;53.572;10.174;2024-02-21T12:51:58;29.43;;;17.77;;
3297;SDS011;1661;53.572;10.174;2024-02-21T12:54:25;28.30;;;15.90;;
3297;SDS011;1661;53.572;10.174;2024-02-21T12:56:52;23.87;;;15.43;;
3297;SDS011;1661;53.572;10.174;2024-02-21T12:59:19;25.07;;;16.43;;
3297;SDS011;1661;53.572;10.174;2024-02-21T13:01:46;37.27;;;19.70;;
3297;SDS011;1661;53.572;10.174;2024-02-21T13:04:13;28.93;;;16.40;;
3297;SDS011;1661;53.572;10.174;2024-02-21T13:06:40;28.50;;;16.53;;
3297;SDS011;1661;53.572;10.174;2024-02-21T13:09:08;26.87;;;17.60;;
3297;SDS011;1661;53.572;10.174;2024-02-21T13:11:36;26.90;;;17.30;;
3297;SDS011;1661;53.572;10.174;2024-02-21T13:14:03;24.80;;;17.60;;
3297;SDS011;1661;53.572;10.174;2024-02-21T13:16:30;33.57;;;17.77;;
3297;SDS011;1661;53.572;10.174;2024-02-21T13:18:56;32.53;;;19.43;;
3297;SDS011;1661;53.572;10.174;2024-02-21T13:21:23;29.07;;;17.90;;
3297;SDS011;1661;53.572;10.174;2024-02-21T13:23:50;34.90;;;18.97;;
3297;SDS011;1661;53.572;10.174;2024-02-21T13:26:18;30.80;;;19.10;;
3297;SDS011;1661;53.572;10.174;2024-02-21T13:28:45;29.77;;;18.33;;
3297;SDS011;1661;53.572;10.174;2024-02-21T13:31:13;25.33;;;18.00;;
3297;SDS011;1661;53.572;10.174;2024-02-21T13:33:41;27.10;;;17.50;;
3297;SDS011;1661;53.572;10.174;2024-02-21T13:36:09;28.13;;;19.07;;
3297;SDS011;1661;53.572;10.174;2024-02-21T13:38:36;29.43;;;15.80;;
3297;SDS011;1661;53.572;10.174;2024-02-21T13:41:03;31.10;;;19.10;;
3297;SDS011;1661;53.572;10.174;2024-02-21T13:43:32;34.90;;;18.53;;
3297;SDS011;1661;53.572;10.174;2024-02-21T13:46:00;26.63;;;16.80;;
3297;SDS011;1661;53.572;10.174;2024-02-21T13:48:27;34.67;;;17.83;;
3297;SDS011;1661;53.572;10.174;2024-02-21T13:50:55;32.37;;;17.27;;
3297;SDS011;1661;53.572;10.174;2024-02-21T13:53:22;28.00;;;17.30;;
3297;SDS011;1661;53.572;10.174;2024-02-21T13:55:48;26.17;;;18.17;;
3297;SDS011;1661;53.572;10.174;2024-02-21T13:58:16;26.77;;;17.30;;
3297;SDS011;1661;53.572;10.174;2024-02-21T14:00:44;35.53;;;20.27;;
3297;SDS011;1661;53.572;10.174;2024-02-21T14:03:11;26.93;;;16.27;;
3297;SDS011;1661;53.572;10.174;2024-02-21T14:05:38;25.10;;;17.10;;
3297;SDS011;1661;53.572;10.174;2024-02-21T14:08:05;27.83;;;17.03;;
3297;SDS011;1661;53.572;10.174;2024-02-21T14:10:32;29.30;;;17.80;;
3297;SDS011;1661;53.572;10.174;2024-02-21T14:12:59;30.70;;;18.67;;
3297;SDS011;1661;53.572;10.174;2024-02-21T14:15:26;27.87;;;16.83;;
3297;SDS011;1661;53.572;10.174;2024-02-21T14:17:54;22.67;;;18.10;;
3297;SDS011;1661;53.572;10.174;2024-02-21T14:20:21;26.20;;;17.80;;
3297;SDS011;1661;53.572;10.174;2024-02-21T14:22:48;31.47;;;17.53;;
3297;SDS011;1661;53.572;10.174;2024-02-21T14:25:14;32.63;;;18.60;;
3297;SDS011;1661;53.572;10.174;2024-02-21T14:27:41;27.30;;;18.77;;
3297;SDS011;1661;53.572;10.174;2024-02-21T14:30:09;32.67;;;18.97;;
3297;SDS011;1661;53.572;10.174;2024-02-21T14:32:36;27.07;;;18.07;;
3297;SDS011;1661;53.572;10.174;2024-02-21T14:35:04;32.80;;;19.77;;
3297;SDS011;1661;53.572;10.174;2024-02-21T14:37:32;28.70;;;19.07;;